Hauptseite
METAR-TAF:

METAR-TAF

Flughäfen :

Militärflugplatz Alpnach

Alpnach, Schweiz

Breite: 46-56-19N, Länge: 8-17-03E, Höhe: 440 m

Beobachtung

Neuester Wetterbericht von vor 33 Minuten, um 12:50 UTC
Wind 11 kt aus Ost/Nordost
Temperatur 22°C
Luftfeuchtigkeit 57%
Luftdruck 1011 hPa
Sichtweite 10 km oder mehr
Aufgelockert bewölkt in der Höhe von 5500 ft, Towering cumulus.

METAR: LSMA 221250Z 07011KT 9999 SCT055TCU 22/13 Q1011 RMK BLU+

Zeit: 15:23 (13:23 UTC)


TAF: fehlend

Wetterbeobachtungen und Prognosen von mehr als 4000 Flughäfen (METAR und TAF Bericht).

Die verfügbaren Stationen werden durch gelbe und rote Markierungen auf der Karte dargestellt.

Führen Sie die Maus auf sie, um den Namen der Station zu sehen.

Darauf klicken, um die Beobachtung von Wetterbeobachtungen und Prognosen zu sehen.

Um die Karte zu ändern : klicken Sie auf den grünen Tasten mit einem schwarzen Kreuz Zum Vergrößern, auf den grünen Button mit einem Gedankenstrich zu verkleinern, oder auf die grünen Pfeile für benachbarte Karten.


METAR-TAF: